createdAt,value
2024-02-19T00:02:16.411Z,-1.24
2024-02-19T00:04:44.639Z,-1.21
2024-02-19T00:07:12.810Z,-1.16
2024-02-19T00:09:40.762Z,-1.13
2024-02-19T00:12:08.825Z,-1.13
2024-02-19T00:14:37.564Z,-1.12
2024-02-19T00:17:06.151Z,-1.08
2024-02-19T00:19:34.249Z,-1.09
2024-02-19T00:22:02.399Z,-1.11
2024-02-19T00:24:30.336Z,-1.08
2024-02-19T00:26:58.281Z,-1.04
2024-02-19T00:29:26.168Z,-0.99
2024-02-19T00:31:54.100Z,-0.92
2024-02-19T00:34:22.440Z,-0.89
2024-02-19T00:36:51.721Z,-0.88
2024-02-19T00:39:20.228Z,-0.83
2024-02-19T00:41:48.677Z,-0.79
2024-02-19T00:44:16.705Z,-0.75
2024-02-19T00:46:45.036Z,-0.70
2024-02-19T00:49:13.324Z,-0.69
2024-02-19T00:51:41.490Z,-0.69
2024-02-19T00:54:09.472Z,-0.70
2024-02-19T00:56:38.479Z,-0.72
2024-02-19T00:59:08.294Z,-0.70
2024-02-19T01:01:36.476Z,-0.70
2024-02-19T01:04:05.010Z,-0.70
2024-02-19T01:06:33.053Z,-0.70
2024-02-19T01:09:00.994Z,-0.65
2024-02-19T01:11:29.097Z,-0.60
2024-02-19T01:13:57.293Z,-0.53
2024-02-19T01:16:25.298Z,-0.47
2024-02-19T01:18:53.521Z,-0.50
2024-02-19T01:21:21.597Z,-0.53
2024-02-19T01:23:49.577Z,-0.56
2024-02-19T01:26:21.906Z,-0.61
2024-02-19T01:28:50.251Z,-0.64
2024-02-19T01:31:18.263Z,-0.66
2024-02-19T01:33:46.467Z,-0.69
2024-02-19T01:36:14.534Z,-0.72
2024-02-19T01:38:45.191Z,-0.77
2024-02-19T01:41:13.054Z,-0.84
2024-02-19T01:43:41.021Z,-0.89
2024-02-19T01:46:09.603Z,-0.91
2024-02-19T01:48:39.188Z,-0.95
2024-02-19T01:51:07.494Z,-0.96
2024-02-19T01:53:35.847Z,-0.95
2024-02-19T01:56:04.564Z,-0.97
2024-02-19T01:58:34.659Z,-0.97
2024-02-19T02:01:04.897Z,-1.02
2024-02-19T02:03:35.175Z,-1.08
2024-02-19T02:06:03.304Z,-1.14
2024-02-19T02:08:32.396Z,-1.14
2024-02-19T02:11:01.304Z,-1.12
2024-02-19T02:13:34.229Z,-1.07
2024-02-19T02:16:05.735Z,-1.00
2024-02-19T02:18:34.712Z,-1.00
2024-02-19T02:21:03.813Z,-1.05
2024-02-19T02:23:32.828Z,-1.11
2024-02-19T02:26:00.878Z,-1.18
2024-02-19T02:28:28.863Z,-1.23
2024-02-19T02:30:56.930Z,-1.23
2024-02-19T02:33:25.118Z,-1.29
2024-02-19T02:35:53.091Z,-1.34
2024-02-19T02:38:21.106Z,-1.42
2024-02-19T02:40:48.987Z,-1.48
2024-02-19T02:43:17.045Z,-1.51
2024-02-19T02:45:45.151Z,-1.52
2024-02-19T02:48:13.161Z,-1.53
2024-02-19T02:50:41.196Z,-1.53
2024-02-19T02:53:09.135Z,-1.52
2024-02-19T02:55:37.036Z,-1.51
2024-02-19T02:58:05.727Z,-1.48
2024-02-19T03:00:33.705Z,-1.46
2024-02-19T03:03:01.721Z,-1.40
2024-02-19T03:05:29.668Z,-1.36
2024-02-19T03:07:57.678Z,-1.33
2024-02-19T03:10:25.755Z,-1.25
2024-02-19T03:12:53.821Z,-1.17
2024-02-19T03:15:21.811Z,-1.08
2024-02-19T03:17:49.792Z,-0.99
2024-02-19T03:20:20.096Z,-0.93
2024-02-19T03:22:48.279Z,-0.83
2024-02-19T03:25:16.566Z,-0.79
2024-02-19T03:27:44.697Z,-0.72
2024-02-19T03:30:13.473Z,-0.67
2024-02-19T03:32:41.597Z,-0.63
2024-02-19T03:35:09.821Z,-0.56
2024-02-19T03:37:37.849Z,-0.51
2024-02-19T03:40:09.915Z,-0.44
2024-02-19T03:42:38.216Z,-0.44
2024-02-19T03:45:06.642Z,-0.38
2024-02-19T03:47:36.079Z,-0.30
2024-02-19T03:50:04.992Z,-0.23
2024-02-19T03:52:32.895Z,-0.25
2024-02-19T03:55:00.982Z,-0.28
2024-02-19T03:57:29.344Z,-0.30
2024-02-19T03:59:57.579Z,-0.30
2024-02-19T04:02:26.060Z,-0.30
2024-02-19T04:04:54.262Z,-0.27
2024-02-19T04:07:22.506Z,-0.22
2024-02-19T04:09:50.477Z,-0.14
2024-02-19T04:12:18.518Z,-0.10
2024-02-19T04:14:46.787Z,-0.06
2024-02-19T04:17:14.805Z,-0.04
2024-02-19T04:19:42.893Z,-0.04
2024-02-19T04:22:10.928Z,-0.01
2024-02-19T04:24:39.500Z,0.04
2024-02-19T04:27:07.643Z,0.06
2024-02-19T04:29:35.605Z,0.09
2024-02-19T04:32:03.744Z,0.13
2024-02-19T04:34:31.814Z,0.15
2024-02-19T04:36:59.969Z,0.16
2024-02-19T04:39:27.945Z,0.17
2024-02-19T04:41:55.831Z,0.19
2024-02-19T04:44:23.792Z,0.23
2024-02-19T04:46:51.734Z,0.25
2024-02-19T04:49:19.866Z,0.27
2024-02-19T04:51:48.134Z,0.30
2024-02-19T04:54:16.193Z,0.34
2024-02-19T04:56:44.097Z,0.39
2024-02-19T04:59:12.262Z,0.44
2024-02-19T05:01:40.325Z,0.49
2024-02-19T05:04:08.439Z,0.54
2024-02-19T05:06:36.533Z,0.59
2024-02-19T05:09:04.638Z,0.63
2024-02-19T05:11:32.826Z,0.68
2024-02-19T05:14:00.799Z,0.71
2024-02-19T05:16:28.725Z,0.73
2024-02-19T05:18:57.507Z,0.73
2024-02-19T05:21:25.605Z,0.75
2024-02-19T05:23:53.524Z,0.76
2024-02-19T05:26:27.950Z,0.77
2024-02-19T05:28:57.238Z,0.78
2024-02-19T05:31:34.010Z,0.82
2024-02-19T05:34:04.916Z,0.86
2024-02-19T05:36:33.342Z,0.86
2024-02-19T05:39:02.071Z,0.88
2024-02-19T05:41:30.191Z,0.90
2024-02-19T05:43:58.103Z,0.90
2024-02-19T05:46:26.145Z,0.90
2024-02-19T05:48:54.412Z,0.92
2024-02-19T05:51:23.351Z,0.95
2024-02-19T05:53:51.265Z,0.97
2024-02-19T05:56:20.148Z,1.00
2024-02-19T05:58:48.837Z,1.06
2024-02-19T06:01:18.641Z,1.11
2024-02-19T06:03:47.259Z,1.15
2024-02-19T06:06:15.430Z,1.18
2024-02-19T06:08:44.036Z,1.23
2024-02-19T06:11:12.002Z,1.27
2024-02-19T06:13:40.388Z,1.31
2024-02-19T06:16:09.202Z,1.36
2024-02-19T06:18:37.510Z,1.38
2024-02-19T06:21:05.661Z,1.39
2024-02-19T06:23:34.103Z,1.42
2024-02-19T06:26:02.133Z,1.46
2024-02-19T06:28:30.113Z,1.48
2024-02-19T06:30:58.094Z,1.51
2024-02-19T06:33:26.033Z,1.53
2024-02-19T06:35:54.021Z,1.55
2024-02-19T06:38:22.023Z,1.57
2024-02-19T06:40:49.968Z,1.63
2024-02-19T06:43:20.004Z,1.67
2024-02-19T06:45:48.223Z,1.73
2024-02-19T06:48:16.425Z,1.80
2024-02-19T06:50:44.430Z,1.85
2024-02-19T06:53:12.435Z,1.88
2024-02-19T06:55:40.313Z,1.93
2024-02-19T06:58:08.417Z,1.99
2024-02-19T07:00:36.539Z,2.06
2024-02-19T07:03:04.858Z,2.11
2024-02-19T07:05:32.992Z,2.16
2024-02-19T07:08:01.240Z,2.21
2024-02-19T07:10:29.216Z,2.24
2024-02-19T07:12:57.310Z,2.26
2024-02-19T07:15:25.317Z,2.30
2024-02-19T07:17:53.293Z,2.33
2024-02-19T07:20:21.421Z,2.35
2024-02-19T07:22:49.471Z,2.38
2024-02-19T07:25:21.925Z,2.41
2024-02-19T07:27:50.610Z,2.43
2024-02-19T07:30:18.846Z,2.49
2024-02-19T07:32:47.044Z,2.54
2024-02-19T07:35:15.396Z,2.61
2024-02-19T07:37:43.502Z,2.66
2024-02-19T07:40:11.924Z,2.70
2024-02-19T07:42:40.080Z,2.76
2024-02-19T07:45:08.987Z,2.85
2024-02-19T07:47:37.142Z,2.92
2024-02-19T07:50:05.799Z,2.98
2024-02-19T07:52:34.034Z,3.06
2024-02-19T07:55:02.206Z,3.12
2024-02-19T07:57:30.261Z,3.19
2024-02-19T07:59:58.412Z,3.25
2024-02-19T08:02:26.546Z,3.29
2024-02-19T08:04:54.880Z,3.36
2024-02-19T08:07:23.137Z,3.40
2024-02-19T08:09:51.284Z,3.47
2024-02-19T08:12:19.400Z,3.51
2024-02-19T08:14:47.440Z,3.60
2024-02-19T08:17:15.685Z,3.66
2024-02-19T08:19:43.942Z,3.72
2024-02-19T08:22:12.001Z,3.76
2024-02-19T08:24:40.227Z,3.81
2024-02-19T08:27:08.426Z,3.86
2024-02-19T08:29:36.668Z,3.91
2024-02-19T08:32:04.970Z,3.99
2024-02-19T08:34:33.106Z,4.06
2024-02-19T08:37:01.268Z,4.13
2024-02-19T08:39:29.332Z,4.19
2024-02-19T08:41:58.287Z,4.27
2024-02-19T08:44:26.558Z,4.33
2024-02-19T08:46:54.530Z,4.40
2024-02-19T08:49:24.390Z,4.45
2024-02-19T08:51:52.550Z,4.51
2024-02-19T08:54:20.648Z,4.54
2024-02-19T08:57:21.425Z,4.62
2024-02-19T08:59:49.727Z,4.62
2024-02-19T09:02:18.402Z,4.60
2024-02-19T09:04:46.925Z,4.57
2024-02-19T09:07:15.707Z,4.54
2024-02-19T09:09:46.789Z,4.52
2024-02-19T09:12:14.924Z,4.53
2024-02-19T09:14:43.194Z,4.51
2024-02-19T09:17:11.386Z,4.50
2024-02-19T09:19:39.796Z,4.49
2024-02-19T09:22:08.970Z,4.50
2024-02-19T09:24:37.096Z,4.47
2024-02-19T09:27:05.415Z,4.48
2024-02-19T09:29:36.217Z,4.48
2024-02-19T09:32:04.983Z,4.48
2024-02-19T09:34:34.031Z,4.49
2024-02-19T09:37:02.344Z,4.48
2024-02-19T09:39:30.378Z,4.53
2024-02-19T09:41:58.935Z,4.56
2024-02-19T09:44:27.631Z,4.56
2024-02-19T09:47:02.655Z,4.56
2024-02-19T09:49:32.334Z,4.58
2024-02-19T09:52:04.244Z,4.58
2024-02-19T09:55:14.791Z,4.64
2024-02-19T09:57:43.166Z,4.64
2024-02-19T10:00:12.961Z,4.69
2024-02-19T10:02:41.070Z,4.74
2024-02-19T10:05:12.570Z,4.79
2024-02-19T10:07:41.248Z,4.83
2024-02-19T10:10:11.410Z,4.86
2024-02-19T10:12:45.654Z,4.87
2024-02-19T10:15:13.702Z,4.90
2024-02-19T10:17:41.842Z,4.96
2024-02-19T10:20:11.776Z,5.02
2024-02-19T10:22:40.294Z,5.10
2024-02-19T10:25:09.216Z,5.19
2024-02-19T10:27:39.160Z,5.29
2024-02-19T10:30:14.046Z,5.36
2024-02-19T10:32:47.387Z,5.42
2024-02-19T10:35:17.189Z,5.47
2024-02-19T10:37:45.198Z,5.56
2024-02-19T10:40:18.418Z,5.70
2024-02-19T10:42:49.654Z,5.85
2024-02-19T10:45:22.708Z,6.01
2024-02-19T10:47:52.467Z,6.15
2024-02-19T10:50:21.660Z,6.26
2024-02-19T10:52:50.436Z,6.36
2024-02-19T10:55:32.621Z,6.45
2024-02-19T10:58:17.125Z,6.50
2024-02-19T11:00:45.621Z,6.58
2024-02-19T11:03:14.847Z,6.60
2024-02-19T11:05:47.213Z,6.65
2024-02-19T11:08:24.540Z,6.66
2024-02-19T11:10:56.790Z,6.68
2024-02-19T11:13:27.885Z,6.66
2024-02-19T11:15:56.895Z,6.67
2024-02-19T11:18:26.297Z,6.69
2024-02-19T11:21:03.475Z,6.67
2024-02-19T11:23:31.947Z,6.67
2024-02-19T11:26:01.944Z,6.62
2024-02-19T11:28:34.060Z,6.57
2024-02-19T11:31:03.306Z,6.54
2024-02-19T11:33:31.425Z,6.50
2024-02-19T11:35:59.570Z,6.51
2024-02-19T11:38:31.187Z,6.47
2024-02-19T11:41:00.962Z,6.46
2024-02-19T11:43:29.541Z,6.42
2024-02-19T11:45:59.840Z,6.41
2024-02-19T11:48:28.696Z,6.35
2024-02-19T11:50:58.450Z,6.30
2024-02-19T11:53:26.620Z,6.26
2024-02-19T11:56:02.087Z,6.24
2024-02-19T11:58:30.711Z,6.23
2024-02-19T12:01:00.383Z,6.24
2024-02-19T12:03:29.329Z,6.25
2024-02-19T12:06:01.843Z,6.26
2024-02-19T12:08:32.007Z,6.25
2024-02-19T12:11:00.417Z,6.22
2024-02-19T12:13:28.672Z,6.19
2024-02-19T12:15:56.979Z,6.17
2024-02-19T12:18:26.113Z,6.15
2024-02-19T12:20:54.314Z,6.14
2024-02-19T12:23:22.301Z,6.10
2024-02-19T12:25:50.649Z,6.08
2024-02-19T12:28:18.737Z,6.03
2024-02-19T12:30:46.908Z,6.02
2024-02-19T12:33:15.135Z,6.00
2024-02-19T12:35:48.025Z,5.99
2024-02-19T12:38:16.264Z,6.01
2024-02-19T12:40:44.490Z,5.98
2024-02-19T12:43:12.862Z,5.98
2024-02-19T12:45:40.948Z,5.98
2024-02-19T12:48:11.530Z,5.97
2024-02-19T12:50:39.661Z,5.97
2024-02-19T12:53:07.731Z,5.98
2024-02-19T12:55:36.116Z,6.00
2024-02-19T12:58:04.194Z,6.03
2024-02-19T13:00:32.277Z,6.06
2024-02-19T13:03:00.690Z,6.09
2024-02-19T13:05:28.989Z,6.10
2024-02-19T13:07:57.446Z,6.09
2024-02-19T13:10:25.929Z,6.11
2024-02-19T13:12:54.089Z,6.08
2024-02-19T13:15:22.223Z,6.11
2024-02-19T13:17:50.475Z,6.13
2024-02-19T13:20:18.641Z,6.14
2024-02-19T13:22:46.892Z,6.11
2024-02-19T13:25:15.556Z,6.12
2024-02-19T13:27:45.453Z,6.10
2024-02-19T13:30:14.461Z,6.10
2024-02-19T13:32:44.513Z,6.12
2024-02-19T13:35:13.693Z,6.09
2024-02-19T13:37:42.713Z,6.07
2024-02-19T13:40:12.402Z,6.06
2024-02-19T13:42:41.433Z,6.09
2024-02-19T13:45:10.679Z,6.05
2024-02-19T13:47:42.536Z,6.01
2024-02-19T13:50:13.177Z,5.96
2024-02-19T13:52:44.286Z,5.95
2024-02-19T13:55:18.321Z,5.91
2024-02-19T13:57:51.703Z,5.91
2024-02-19T14:00:20.485Z,5.91
2024-02-19T14:02:52.436Z,5.88
2024-02-19T14:05:21.541Z,5.85
2024-02-19T14:07:50.856Z,5.83
2024-02-19T14:10:19.064Z,5.84
2024-02-19T14:12:47.202Z,5.80
2024-02-19T14:15:15.411Z,5.78
2024-02-19T14:17:43.686Z,5.75
2024-02-19T14:20:12.060Z,5.74
2024-02-19T14:22:40.353Z,5.76
2024-02-19T14:25:12.776Z,5.68
2024-02-19T14:30:49.938Z,5.61
2024-02-19T14:33:18.276Z,5.61
2024-02-19T14:35:46.664Z,5.56
2024-02-19T14:38:15.348Z,5.53
2024-02-19T14:40:44.822Z,5.54
2024-02-19T14:43:13.166Z,5.52
2024-02-19T14:45:41.578Z,5.47
2024-02-19T14:48:10.077Z,5.51
2024-02-19T14:50:38.865Z,5.50
2024-02-19T14:53:07.059Z,5.47
2024-02-19T14:55:35.077Z,5.44
2024-02-19T14:58:05.832Z,5.43
2024-02-19T15:00:36.359Z,5.39
2024-02-19T15:03:11.326Z,5.35
2024-02-19T15:05:41.325Z,5.36
2024-02-19T15:08:09.667Z,5.35
2024-02-19T15:10:37.768Z,5.34
2024-02-19T15:13:06.042Z,5.35
2024-02-19T15:15:34.152Z,5.36
2024-02-19T15:18:05.747Z,5.31
2024-02-19T15:20:33.943Z,5.25
2024-02-19T15:23:04.173Z,5.28
2024-02-19T15:25:32.338Z,5.25
2024-02-19T15:28:00.421Z,5.22
2024-02-19T15:30:28.462Z,5.23
2024-02-19T15:32:56.462Z,5.23
2024-02-19T15:35:26.312Z,5.25
2024-02-19T15:37:54.338Z,5.22
2024-02-19T15:40:24.203Z,5.19
2024-02-19T15:42:52.437Z,5.16
2024-02-19T15:45:20.476Z,5.16
2024-02-19T15:47:48.457Z,5.15
2024-02-19T15:50:17.084Z,5.11
2024-02-19T15:52:54.922Z,5.10
2024-02-19T15:55:26.909Z,5.05
2024-02-19T15:57:55.318Z,5.05
2024-02-19T16:00:23.659Z,5.01
2024-02-19T16:02:51.700Z,5.01
2024-02-19T16:05:19.792Z,4.96
2024-02-19T16:07:50.379Z,4.96
2024-02-19T16:10:20.251Z,4.93
2024-02-19T16:12:50.672Z,4.93
2024-02-19T16:15:18.892Z,4.94
2024-02-19T16:17:46.937Z,4.96
2024-02-19T16:20:15.857Z,4.97
2024-02-19T16:22:44.226Z,4.96
2024-02-19T16:25:12.304Z,4.97
2024-02-19T16:27:40.443Z,5.00
2024-02-19T16:30:10.725Z,4.99
2024-02-19T16:32:39.034Z,4.98
2024-02-19T16:35:07.625Z,4.98
2024-02-19T16:37:35.936Z,5.00
2024-02-19T16:40:04.406Z,5.02
2024-02-19T16:42:36.880Z,5.00
2024-02-19T16:45:05.831Z,4.97
2024-02-19T16:47:34.018Z,4.96
2024-02-19T16:50:02.522Z,4.99
2024-02-19T16:52:30.752Z,4.97
2024-02-19T16:54:58.918Z,4.99
2024-02-19T16:57:26.968Z,4.95
2024-02-19T16:59:55.124Z,4.95
2024-02-19T17:02:23.193Z,4.94
2024-02-19T17:04:52.833Z,4.98
2024-02-19T17:07:21.599Z,4.97
2024-02-19T17:09:49.697Z,4.97
2024-02-19T17:12:17.797Z,4.98
2024-02-19T17:14:46.150Z,4.98
2024-02-19T17:17:14.172Z,4.98
2024-02-19T17:19:42.729Z,4.94
2024-02-19T17:22:10.898Z,4.93
2024-02-19T17:24:40.596Z,4.90
2024-02-19T17:27:11.968Z,4.90
2024-02-19T17:29:43.824Z,4.92
2024-02-19T17:32:12.267Z,4.94
2024-02-19T17:34:40.526Z,4.93
2024-02-19T17:37:08.567Z,4.87
2024-02-19T17:39:37.047Z,4.82
2024-02-19T17:42:05.416Z,4.72
2024-02-19T17:44:33.906Z,4.68
2024-02-19T17:47:03.365Z,4.73
2024-02-19T17:49:32.474Z,4.63
2024-02-19T17:52:00.866Z,4.61
2024-02-19T17:54:30.820Z,4.59
2024-02-19T17:57:02.259Z,4.57
2024-02-19T17:59:35.340Z,4.50
2024-02-19T18:02:04.961Z,4.45
2024-02-19T18:04:33.420Z,4.39
2024-02-19T18:07:02.257Z,4.41
2024-02-19T18:09:30.567Z,4.36
2024-02-19T18:11:58.699Z,4.30
2024-02-19T18:14:29.240Z,4.30
2024-02-19T18:16:57.476Z,4.27
2024-02-19T18:19:25.748Z,4.25
2024-02-19T18:21:55.709Z,4.22
2024-02-19T18:24:23.986Z,4.22
2024-02-19T18:26:52.088Z,4.20
2024-02-19T18:29:20.187Z,4.19
2024-02-19T18:31:53.196Z,4.21
2024-02-19T18:34:21.369Z,4.23
2024-02-19T18:36:54.526Z,4.28
2024-02-19T18:39:22.681Z,4.26
2024-02-19T18:41:52.324Z,4.25
2024-02-19T18:44:20.323Z,4.22
2024-02-19T18:46:48.310Z,4.21
2024-02-19T18:49:18.383Z,4.19
2024-02-19T18:51:47.538Z,4.16
2024-02-19T18:54:15.816Z,4.16
2024-02-19T18:56:46.384Z,4.12
2024-02-19T18:59:14.607Z,4.18
2024-02-19T19:01:42.843Z,4.18
2024-02-19T19:04:11.064Z,4.17
2024-02-19T19:06:39.342Z,4.19
2024-02-19T19:09:08.193Z,4.23
2024-02-19T19:11:36.450Z,4.20
2024-02-19T19:14:04.582Z,4.20
2024-02-19T19:16:33.734Z,4.16
2024-02-19T19:19:04.661Z,4.15
2024-02-19T19:21:33.588Z,4.14
2024-02-19T19:24:04.581Z,4.14
2024-02-19T19:26:34.272Z,4.11
2024-02-19T19:29:02.950Z,4.06
2024-02-19T19:31:33.078Z,4.08
2024-02-19T19:34:01.460Z,4.04
2024-02-19T19:36:30.324Z,4.03
2024-02-19T19:38:58.514Z,4.02
2024-02-19T19:41:26.513Z,3.99
2024-02-19T19:43:54.531Z,3.98
2024-02-19T19:46:22.534Z,3.99
2024-02-19T19:48:50.679Z,3.97
2024-02-19T19:51:19.716Z,3.98
2024-02-19T19:53:47.774Z,3.99
2024-02-19T19:56:17.269Z,4.00
2024-02-19T19:58:45.489Z,4.02
2024-02-19T20:01:13.690Z,3.98
2024-02-19T20:03:41.753Z,4.02
2024-02-19T20:06:09.861Z,4.02
2024-02-19T20:08:37.950Z,4.04
2024-02-19T20:11:08.185Z,4.05
2024-02-19T20:13:36.368Z,4.05
2024-02-19T20:16:05.511Z,4.07
2024-02-19T20:18:34.306Z,4.09
2024-02-19T20:21:03.056Z,4.07
2024-02-19T20:23:33.068Z,4.07
2024-02-19T20:26:07.918Z,4.08
2024-02-19T20:28:36.115Z,4.09
2024-02-19T20:31:06.653Z,4.07
2024-02-19T20:33:38.822Z,4.05
2024-02-19T20:36:12.227Z,4.05
2024-02-19T20:38:40.319Z,4.07
2024-02-19T20:41:10.531Z,4.06
2024-02-19T20:43:52.456Z,4.06
2024-02-19T20:46:22.316Z,4.07
2024-02-19T20:48:53.255Z,4.06
2024-02-19T20:51:25.640Z,4.06
2024-02-19T20:53:53.660Z,4.10
2024-02-19T20:56:24.104Z,4.07
2024-02-19T20:58:53.265Z,4.06
2024-02-19T21:01:21.414Z,4.04
2024-02-19T21:04:04.147Z,4.01
2024-02-19T21:06:32.309Z,3.99
2024-02-19T21:09:00.428Z,4.04
2024-02-19T21:11:28.593Z,4.04
2024-02-19T21:13:56.703Z,4.01
2024-02-19T21:16:25.559Z,4.03
2024-02-19T21:18:53.710Z,4.03
2024-02-19T21:21:30.168Z,4.00
2024-02-19T21:24:03.793Z,4.00
2024-02-19T21:26:32.458Z,3.99
2024-02-19T21:29:01.181Z,3.99
2024-02-19T21:31:29.286Z,3.96
2024-02-19T21:33:57.631Z,3.96
2024-02-19T21:36:26.028Z,3.95
2024-02-19T21:39:04.590Z,3.94
2024-02-19T21:41:38.363Z,3.92
2024-02-19T21:44:07.945Z,3.92
2024-02-19T21:46:37.286Z,3.91
2024-02-19T21:49:06.101Z,3.91
2024-02-19T21:51:37.533Z,3.90
2024-02-19T21:54:06.937Z,3.92
2024-02-19T21:56:34.917Z,3.93
2024-02-19T21:59:02.898Z,3.93
2024-02-19T22:01:32.151Z,3.96
2024-02-19T22:04:03.832Z,3.99
2024-02-19T22:06:32.875Z,3.99
2024-02-19T22:09:01.782Z,4.02
2024-02-19T22:11:30.347Z,4.04
2024-02-19T22:13:58.464Z,4.05
2024-02-19T22:16:26.547Z,4.06
2024-02-19T22:18:54.746Z,4.08
2024-02-19T22:21:22.798Z,4.09
2024-02-19T22:23:50.735Z,4.07
2024-02-19T22:26:18.612Z,4.08
2024-02-19T22:28:46.582Z,4.07
2024-02-19T22:31:14.638Z,4.12
2024-02-19T22:33:42.584Z,4.12
2024-02-19T22:36:10.488Z,4.14
2024-02-19T22:38:39.152Z,4.14
2024-02-19T22:41:07.131Z,4.10
2024-02-19T22:43:35.214Z,4.13
2024-02-19T22:46:03.378Z,4.16
2024-02-19T22:48:31.383Z,4.16
2024-02-19T22:50:59.492Z,4.18
2024-02-19T22:53:27.388Z,4.20
2024-02-19T22:55:55.469Z,4.22
2024-02-19T22:58:31.537Z,4.21
2024-02-19T23:01:03.698Z,4.19
2024-02-19T23:03:32.017Z,4.18
2024-02-19T23:06:00.288Z,4.17
2024-02-19T23:08:28.585Z,4.17
2024-02-19T23:10:56.763Z,4.17
2024-02-19T23:13:24.885Z,4.17
2024-02-19T23:15:53.060Z,4.22
2024-02-19T23:18:22.947Z,4.20
2024-02-19T23:20:51.111Z,4.19
2024-02-19T23:23:19.129Z,4.18
2024-02-19T23:25:51.990Z,4.19
2024-02-19T23:28:20.611Z,4.24
2024-02-19T23:30:48.717Z,4.22
2024-02-19T23:33:16.914Z,4.24
2024-02-19T23:35:46.503Z,4.27
2024-02-19T23:38:18.976Z,4.28
2024-02-19T23:40:47.132Z,4.26
2024-02-19T23:43:17.963Z,4.26
2024-02-19T23:45:46.302Z,4.28
2024-02-19T23:48:14.334Z,4.28
2024-02-19T23:50:42.263Z,4.29
2024-02-19T23:53:10.572Z,4.27
2024-02-19T23:55:38.514Z,4.25
2024-02-19T23:58:06.882Z,4.26
